Augusta Township, Michigan
Current Conditions -  °F | °C
As of 11:53 AM on Thursday 27 Nov 2014 (Local Time) from KARB Reporting Station
Broken Clouds Broken Clouds  
Wind Chill: 25°   Ceiling: 2700
Heat Index: 34°   Visibility: 10mi
Dew Point: 22°   Wind: 12mph
Humidity: 61%   Direction: 290°WNW
Pressure: 30.16"   Gusts: NA
Location:  42.0828°N, 83.683°W
Report Text: KARB 271653Z 29010KT 10SM SCT022 BKN027 BKN050 01/M06 A3016 RMK AO2 SLP221 T00111056
Loading
Personal Weather Stations






























Interactive Weather Map New forecast layout! Learn more

10-Day Weather Forecast

Advertisements
Track Severe Weather on mobile